createdAt,value
2022-07-27T00:02:31.603Z,99.90
2022-07-27T00:07:33.298Z,99.90
2022-07-27T00:12:35.555Z,99.90
2022-07-27T00:17:37.256Z,99.90
2022-07-27T00:22:38.996Z,99.90
2022-07-27T00:27:40.674Z,99.90
2022-07-27T00:32:42.379Z,99.90
2022-07-27T00:37:44.018Z,99.90
2022-07-27T00:42:45.745Z,99.90
2022-07-27T00:47:50.565Z,99.90
2022-07-27T00:52:55.312Z,99.90
2022-07-27T00:57:59.556Z,99.90
2022-07-27T01:03:05.672Z,99.90
2022-07-27T01:08:12.662Z,99.90
2022-07-27T01:13:16.504Z,99.90
2022-07-27T01:18:35.017Z,99.90
2022-07-27T01:23:36.756Z,99.90
2022-07-27T01:28:38.403Z,99.90
2022-07-27T01:33:40.077Z,99.90
2022-07-27T01:38:41.721Z,99.90
2022-07-27T01:43:44.991Z,99.90
2022-07-27T01:48:46.725Z,99.90
2022-07-27T01:53:48.458Z,99.90
2022-07-27T01:58:50.224Z,99.90
2022-07-27T02:03:51.921Z,99.90
2022-07-27T02:08:53.621Z,99.90
2022-07-27T02:13:55.250Z,99.90
2022-07-27T02:18:56.965Z,99.90
2022-07-27T02:23:58.673Z,99.90
2022-07-27T02:29:00.347Z,99.90
2022-07-27T02:34:02.048Z,99.90
2022-07-27T02:39:04.542Z,99.90
2022-07-27T02:44:06.210Z,99.90
2022-07-27T02:49:08.169Z,99.90
2022-07-27T02:54:09.952Z,99.90
2022-07-27T02:59:11.800Z,99.90
2022-07-27T03:04:14.057Z,99.90
2022-07-27T03:09:15.870Z,99.90
2022-07-27T03:14:17.514Z,99.90
2022-07-27T03:19:19.257Z,99.90
2022-07-27T03:24:20.920Z,99.90
2022-07-27T03:29:22.556Z,99.90
2022-07-27T03:34:24.187Z,99.90
2022-07-27T03:39:25.893Z,99.90
2022-07-27T03:44:27.636Z,99.90
2022-07-27T03:49:29.404Z,99.90
2022-07-27T03:54:31.110Z,99.90
2022-07-27T03:59:32.751Z,99.90
2022-07-27T04:04:34.398Z,99.90
2022-07-27T04:09:37.506Z,99.90
2022-07-27T04:14:41.258Z,99.90
2022-07-27T04:19:43.408Z,99.90
2022-07-27T04:24:45.067Z,99.90
2022-07-27T04:29:46.720Z,99.90
2022-07-27T04:34:48.483Z,99.90
2022-07-27T04:39:50.210Z,99.90
2022-07-27T04:44:51.919Z,99.90
2022-07-27T04:49:53.569Z,99.90
2022-07-27T04:54:55.320Z,99.90
2022-07-27T04:59:56.963Z,99.90
2022-07-27T05:05:00.327Z,99.90
2022-07-27T05:10:02.093Z,99.90
2022-07-27T05:15:04.225Z,99.90
2022-07-27T05:20:06.438Z,99.90
2022-07-27T05:25:08.592Z,99.90
2022-07-27T05:30:11.094Z,99.90
2022-07-27T05:35:14.958Z,99.90
2022-07-27T05:40:16.662Z,99.90
2022-07-27T05:45:18.304Z,99.90
2022-07-27T05:50:20.635Z,99.90
2022-07-27T05:55:22.335Z,99.90
2022-07-27T06:00:24.154Z,99.90
2022-07-27T06:05:26.465Z,99.90
2022-07-27T06:10:32.783Z,99.90
2022-07-27T06:15:35.399Z,99.90
2022-07-27T06:20:37.070Z,99.90
2022-07-27T06:25:38.787Z,99.90
2022-07-27T06:30:43.049Z,99.90
2022-07-27T06:35:44.724Z,99.90
2022-07-27T06:40:52.484Z,99.90
2022-07-27T06:45:54.761Z,99.90
2022-07-27T06:50:57.093Z,99.90
2022-07-27T06:56:03.770Z,99.90
2022-07-27T07:01:05.527Z,99.90
2022-07-27T07:06:07.331Z,99.90
2022-07-27T07:11:11.841Z,99.90
2022-07-27T07:16:14.022Z,99.90
2022-07-27T07:21:16.542Z,99.90
2022-07-27T07:26:18.246Z,99.90
2022-07-27T07:31:20.352Z,99.90
2022-07-27T07:36:22.371Z,99.90
2022-07-27T07:41:24.045Z,99.90
2022-07-27T07:46:25.836Z,99.90
2022-07-27T07:51:27.674Z,99.90
2022-07-27T07:56:29.327Z,99.90
2022-07-27T08:01:31.215Z,99.90
2022-07-27T08:06:32.958Z,99.90
2022-07-27T08:11:34.936Z,99.90
2022-07-27T08:16:37.173Z,99.90
2022-07-27T08:21:39.324Z,99.90
2022-07-27T08:26:41.000Z,99.90
2022-07-27T08:31:50.979Z,99.90
2022-07-27T08:36:53.718Z,99.90
2022-07-27T08:41:58.582Z,99.90
2022-07-27T08:47:02.337Z,99.90
2022-07-27T08:52:04.948Z,99.90
2022-07-27T08:57:10.671Z,99.90
2022-07-27T09:02:14.821Z,99.90
2022-07-27T09:07:37.376Z,99.90
2022-07-27T09:12:39.417Z,99.90
2022-07-27T09:17:50.519Z,99.90
2022-07-27T09:22:52.561Z,99.90
2022-07-27T09:27:56.894Z,99.40
2022-07-27T09:33:03.905Z,99.20
2022-07-27T09:38:23.287Z,98.70
2022-07-27T09:44:27.595Z,97.80
2022-07-27T09:48:47.113Z,96.60
2022-07-27T09:53:49.821Z,95.50
2022-07-27T09:58:55.619Z,94.80
2022-07-27T10:04:07.767Z,94.50
2022-07-27T10:09:09.478Z,93.70
2022-07-27T10:14:11.606Z,93.30
2022-07-27T10:19:22.547Z,92.90
2022-07-27T10:24:28.871Z,93.70
2022-07-27T10:29:31.280Z,92.80
2022-07-27T10:34:34.522Z,92.50
2022-07-27T10:39:39.061Z,92.50
2022-07-27T10:44:52.360Z,92.10
2022-07-27T10:50:20.036Z,92.80
2022-07-27T10:55:31.241Z,90.50
2022-07-27T11:00:54.951Z,90.50
2022-07-27T11:06:04.638Z,88.70
2022-07-27T11:11:20.739Z,89.30
2022-07-27T11:16:24.309Z,86.50
2022-07-27T11:21:30.228Z,85.20
2022-07-27T11:26:44.062Z,83.70
2022-07-27T11:32:02.305Z,81.30
2022-07-27T11:37:13.835Z,80.30
2022-07-27T11:42:21.047Z,79.50
2022-07-27T11:47:28.512Z,77.80
2022-07-27T11:52:30.177Z,78.90
2022-07-27T11:57:33.791Z,77.70
2022-07-27T12:02:35.508Z,78.10
2022-07-27T12:07:37.258Z,79.50
2022-07-27T12:12:38.914Z,79.30
2022-07-27T12:17:43.241Z,79.60
2022-07-27T12:22:47.782Z,79.30
2022-07-27T12:28:01.044Z,79.80
2022-07-27T12:33:04.753Z,78.70
2022-07-27T12:38:08.569Z,79.30
2022-07-27T12:43:10.908Z,79.70
2022-07-27T12:48:16.494Z,78.80
2022-07-27T12:53:18.251Z,78.90
2022-07-27T12:58:20.089Z,78.80
2022-07-27T13:03:22.893Z,79.90
2022-07-27T13:08:24.585Z,78.90
2022-07-27T13:13:26.322Z,80.80
2022-07-27T13:18:28.045Z,78.50
2022-07-27T13:23:29.855Z,76.70
2022-07-27T13:28:31.529Z,77.00
2022-07-27T13:33:33.338Z,75.50
2022-07-27T13:38:34.990Z,76.00
2022-07-27T13:43:36.634Z,74.70
2022-07-27T13:48:38.277Z,75.50
2022-07-27T13:53:39.921Z,76.10
2022-07-27T13:58:41.656Z,77.00
2022-07-27T14:03:43.284Z,76.00
2022-07-27T14:08:47.639Z,75.40
2022-07-27T14:13:49.287Z,75.40
2022-07-27T14:18:51.443Z,76.50
2022-07-27T14:23:53.080Z,76.50
2022-07-27T14:28:56.683Z,75.60
2022-07-27T14:33:58.304Z,76.90
2022-07-27T14:38:59.952Z,76.80
2022-07-27T14:44:01.615Z,76.10
2022-07-27T14:49:06.038Z,75.50
2022-07-27T14:54:08.268Z,74.80
2022-07-27T14:59:10.213Z,74.80
2022-07-27T15:04:12.480Z,75.20
2022-07-27T15:09:14.578Z,75.50
2022-07-27T15:14:17.018Z,75.70
2022-07-27T15:19:18.797Z,75.40
2022-07-27T15:24:20.418Z,76.20
2022-07-27T15:29:22.085Z,75.70
2022-07-27T15:34:23.719Z,73.60
2022-07-27T15:39:25.445Z,73.80
2022-07-27T15:44:27.207Z,73.50
2022-07-27T15:49:29.133Z,73.00
2022-07-27T15:54:34.065Z,71.20
2022-07-27T15:59:37.569Z,70.30
2022-07-27T16:04:40.011Z,71.30
2022-07-27T16:09:41.723Z,69.50
2022-07-27T16:14:44.182Z,68.10
2022-07-27T16:19:45.868Z,68.80
2022-07-27T16:24:47.533Z,67.20
2022-07-27T16:29:49.180Z,65.50
2022-07-27T16:34:50.863Z,67.10
2022-07-27T16:39:52.523Z,66.40
2022-07-27T16:44:54.175Z,64.60
2022-07-27T16:49:55.913Z,65.00
2022-07-27T16:54:57.633Z,65.90
2022-07-27T17:00:00.077Z,64.00
2022-07-27T17:05:06.893Z,64.60
2022-07-27T17:10:09.057Z,63.90
2022-07-27T17:15:10.865Z,62.90
2022-07-27T17:20:12.795Z,63.50
2022-07-27T17:25:14.493Z,63.50
2022-07-27T17:30:16.475Z,63.50
2022-07-27T17:35:18.126Z,63.60
2022-07-27T17:40:19.859Z,64.80
2022-07-27T17:45:24.063Z,64.60
2022-07-27T17:50:26.264Z,63.70
2022-07-27T17:55:28.436Z,63.70
2022-07-27T18:00:30.640Z,64.10
2022-07-27T18:05:33.022Z,64.40
2022-07-27T18:10:38.517Z,64.80
2022-07-27T18:15:55.226Z,67.50
2022-07-27T18:20:57.712Z,67.80
2022-07-27T18:25:59.418Z,68.90
2022-07-27T18:31:01.157Z,69.70
2022-07-27T18:36:02.921Z,70.60
2022-07-27T18:41:04.889Z,71.20
2022-07-27T18:46:06.651Z,72.10
2022-07-27T18:51:08.811Z,72.90
2022-07-27T18:56:10.671Z,73.80
2022-07-27T19:01:12.334Z,74.60
2022-07-27T19:06:17.993Z,75.30
2022-07-27T19:11:19.955Z,75.90
2022-07-27T19:16:22.136Z,76.40
2022-07-27T19:21:23.827Z,77.70
2022-07-27T19:26:25.504Z,77.50
2022-07-27T19:31:28.226Z,78.10
2022-07-27T19:36:30.124Z,78.60
2022-07-27T19:41:31.940Z,78.70
2022-07-27T19:46:33.806Z,79.30
2022-07-27T19:51:35.459Z,79.90
2022-07-27T19:56:37.959Z,80.40
2022-07-27T20:01:39.701Z,80.80
2022-07-27T20:06:41.474Z,81.60
2022-07-27T20:11:43.188Z,81.50
2022-07-27T20:16:45.539Z,81.60
2022-07-27T20:21:48.310Z,82.00
2022-07-27T20:26:50.062Z,82.20
2022-07-27T20:31:55.365Z,82.70
2022-07-27T20:37:02.063Z,82.80
2022-07-27T20:42:04.018Z,82.60
2022-07-27T20:47:07.825Z,83.20
2022-07-27T20:52:09.730Z,83.20
2022-07-27T20:57:11.441Z,83.40
2022-07-27T21:02:13.833Z,83.50
2022-07-27T21:07:15.804Z,83.90
2022-07-27T21:12:17.477Z,83.90
2022-07-27T21:17:19.257Z,84.30
2022-07-27T21:22:21.076Z,84.40
2022-07-27T21:27:22.863Z,84.80
2022-07-27T21:32:24.729Z,85.00
2022-07-27T21:37:26.375Z,85.40
2022-07-27T21:42:28.467Z,85.40
2022-07-27T21:47:31.879Z,85.40
2022-07-27T21:52:33.526Z,85.60
2022-07-27T21:57:35.194Z,86.10
2022-07-27T22:02:36.918Z,86.20
2022-07-27T22:07:38.587Z,86.50
2022-07-27T22:12:40.284Z,86.60
2022-07-27T22:17:46.121Z,87.00
2022-07-27T22:22:52.887Z,87.20
2022-07-27T22:27:54.509Z,87.60
2022-07-27T22:32:56.194Z,88.00
2022-07-27T22:37:57.875Z,88.10
2022-07-27T22:42:59.521Z,88.20
2022-07-27T22:48:01.202Z,88.40
2022-07-27T22:53:03.025Z,88.50
2022-07-27T22:58:04.750Z,88.80
2022-07-27T23:03:06.417Z,88.90
2022-07-27T23:08:08.065Z,89.40
2022-07-27T23:13:09.747Z,89.50
2022-07-27T23:18:12.302Z,89.80
2022-07-27T23:23:16.401Z,90.00
2022-07-27T23:28:19.163Z,90.10
2022-07-27T23:33:20.899Z,90.30
2022-07-27T23:38:22.519Z,90.40
2022-07-27T23:43:24.197Z,90.40
2022-07-27T23:48:25.903Z,90.60
2022-07-27T23:53:30.375Z,90.70
2022-07-27T23:58:31.995Z,90.80
